Time;durP1;ratioP1;P1;durP2;ratioP2;P2;SDS_P1;SDS_P2;PMS_P1;PMS_P2;Temp;Humidity;BMP_temperature;BMP_pressure;BME280_temperature;BME280_humidity;BME280_pressure;Samples;Min_cycle;Max_cycle;Signal;HPM_P1;HPM_P2
2023/09/21 00:02:24;;;;;;;3.75;2.00;;;;;;;20.72;100.00;99888.69;5198062;28;20037;-80
2023/09/21 00:04:55;;;;;;;8.05;2.03;;;;;;;20.72;100.00;99881.31;5196481;28;20040;-80
2023/09/21 00:07:26;;;;;;;3.25;1.67;;;;;;;20.68;100.00;99877.47;5197029;28;20458;-80
2023/09/21 00:09:57;;;;;;;6.57;2.25;;;;;;;20.84;100.00;99876.56;5191373;28;20108;-81
2023/09/21 00:12:27;;;;;;;6.68;2.05;;;;;;;20.84;100.00;99882.00;5195523;28;20124;-81
2023/09/21 00:14:58;;;;;;;3.85;1.85;;;;;;;20.81;100.00;99877.06;5197456;28;20021;-80
2023/09/21 00:17:29;;;;;;;7.30;1.98;;;;;;;20.78;100.00;99871.28;5192571;28;20391;-80
2023/09/21 00:20:23;;;;;;;2.85;1.77;;;;;;;20.68;100.00;99869.28;5194203;28;20029;-81
2023/09/21 00:22:55;;;;;;;5.78;2.20;;;;;;;20.81;100.00;99860.72;5190331;28;20113;-81
2023/09/21 00:25:28;;;;;;;3.97;1.90;;;;;;;20.75;100.00;99860.91;5190010;28;20086;-81
2023/09/21 00:27:58;;;;;;;3.83;1.73;;;;;;;20.65;100.00;99848.84;5193052;28;20038;-80
2023/09/21 00:30:29;;;;;;;4.55;1.90;;;;;;;20.68;100.00;99852.94;5197201;28;20106;-80
2023/09/21 00:33:00;;;;;;;7.82;2.17;;;;;;;20.68;100.00;99844.75;5191486;28;20077;-80
2023/09/21 00:35:30;;;;;;;4.78;1.70;;;;;;;20.58;100.00;99852.81;5195320;28;20025;-80
2023/09/21 00:38:01;;;;;;;5.82;2.13;;;;;;;20.59;100.00;99847.13;5194935;28;20030;-81
2023/09/21 00:40:31;;;;;;;5.78;1.90;;;;;;;20.58;100.00;99837.31;5197784;28;20029;-80
2023/09/21 00:43:06;;;;;;;3.60;1.90;;;;;;;20.58;100.00;99834.59;5195483;28;20390;-80
2023/09/21 00:45:37;;;;;;;5.10;1.98;;;;;;;20.54;100.00;99830.75;5194833;28;20033;-80
2023/09/21 00:48:09;;;;;;;4.47;2.08;;;;;;;20.58;100.00;99833.75;5193421;28;20026;-80
2023/09/21 00:50:42;;;;;;;5.28;2.25;;;;;;;20.52;100.00;99834.78;5187077;28;20025;-80
2023/09/21 00:53:13;;;;;;;7.38;1.90;;;;;;;20.64;100.00;99830.03;5192500;28;20037;-80
2023/09/21 00:55:48;;;;;;;5.45;2.78;;;;;;;20.63;100.00;99825.63;5192894;28;20032;-79
2023/09/21 00:58:22;;;;;;;5.53;1.90;;;;;;;20.63;100.00;99828.34;5193451;28;20116;-81
2023/09/21 01:00:55;;;;;;;10.07;2.05;;;;;;;20.63;100.00;99817.44;5194386;28;20037;-80
2023/09/21 01:03:28;;;;;;;4.45;1.65;;;;;;;20.75;100.00;99826.31;5189053;28;20665;-80
2023/09/21 01:05:59;;;;;;;5.43;1.92;;;;;;;20.77;100.00;99823.31;5193702;28;20120;-81
2023/09/21 01:08:33;;;;;;;2.58;1.63;;;;;;;20.71;100.00;99817.00;5193710;28;20399;-80
2023/09/21 01:11:14;;;;;;;7.95;2.10;;;;;;;20.74;100.00;99807.50;5191348;28;20041;-80
2023/09/21 01:13:58;;;;;;;5.22;1.83;;;;;;;20.72;100.00;99812.38;5189604;28;20041;-80
2023/09/21 01:16:30;;;;;;;3.53;1.83;;;;;;;20.69;100.00;99811.00;5195899;28;20029;-81
2023/09/21 01:19:01;;;;;;;7.68;2.05;;;;;;;20.64;100.00;99806.31;5193612;28;20518;-80
2023/09/21 01:21:35;;;;;;;3.28;1.50;;;;;;;20.61;100.00;99808.72;5191146;28;20017;-80
2023/09/21 01:24:07;;;;;;;3.88;1.98;;;;;;;20.56;100.00;99806.78;5187505;28;20037;-80
2023/09/21 01:26:38;;;;;;;8.93;1.80;;;;;;;20.51;100.00;99797.72;5190006;28;20169;-80
2023/09/21 01:29:09;;;;;;;6.13;2.35;;;;;;;20.50;100.00;99796.91;5194256;28;20033;-79
2023/09/21 01:31:40;;;;;;;4.80;1.80;;;;;;;20.50;100.00;99805.06;5193756;28;20025;-79
2023/09/21 01:34:11;;;;;;;4.70;1.70;;;;;;;20.51;100.00;99792.28;5192665;28;20037;-79
2023/09/21 01:36:43;;;;;;;5.68;1.52;;;;;;;20.45;100.00;99799.53;5189715;28;20395;-79
2023/09/21 01:39:14;;;;;;;4.60;1.60;;;;;;;20.44;100.00;99801.44;5195478;28;20034;-79
2023/09/21 01:41:45;;;;;;;5.25;1.80;;;;;;;20.41;100.00;99798.41;5194582;28;20022;-79
2023/09/21 01:44:15;;;;;;;3.33;1.50;;;;;;;20.33;100.00;99786.09;5195360;28;20043;-79
2023/09/21 01:46:46;;;;;;;10.07;2.03;;;;;;;20.31;100.00;99788.22;5196163;28;20026;-80
2023/09/21 01:49:17;;;;;;;7.43;1.80;;;;;;;20.26;100.00;99788.16;5195362;28;20037;-80
2023/09/21 01:51:49;;;;;;;8.02;1.83;;;;;;;20.29;100.00;99784.13;5176391;28;20049;-80
2023/09/21 01:54:19;;;;;;;5.18;2.03;;;;;;;20.31;100.00;99787.41;5192581;28;20356;-80
2023/09/21 01:56:50;;;;;;;4.72;2.20;;;;;;;20.29;100.00;99787.66;5193954;28;20037;-80
2023/09/21 01:59:20;;;;;;;4.95;1.90;;;;;;;20.31;100.00;99785.50;5197257;28;20036;-80
2023/09/21 02:01:51;;;;;;;6.45;1.83;;;;;;;20.36;100.00;99788.28;5192907;28;20108;-79
2023/09/21 02:04:22;;;;;;;4.22;1.70;;;;;;;20.35;100.00;99783.91;5192922;28;20368;-79
2023/09/21 02:06:52;;;;;;;5.63;1.75;;;;;;;20.33;100.00;99771.63;5196956;28;20033;-80
2023/09/21 02:09:23;;;;;;;4.10;1.98;;;;;;;20.32;100.00;99770.78;5197367;28;20455;-80
2023/09/21 02:11:54;;;;;;;5.60;1.90;;;;;;;20.31;100.00;99781.97;5191476;28;20030;-80
2023/09/21 02:14:35;;;;;;;7.00;1.80;;;;;;;20.26;100.00;99773.72;5192702;28;20032;-82
2023/09/21 02:17:05;;;;;;;3.35;1.33;;;;;;;20.25;100.00;99774.81;5195291;28;20021;-81
2023/09/21 02:19:37;;;;;;;6.00;1.80;;;;;;;20.19;100.00;99768.50;5194589;28;20033;-80
2023/09/21 02:22:11;;;;;;;4.90;2.13;;;;;;;20.11;100.00;99767.03;5195955;28;20044;-80
2023/09/21 02:24:42;;;;;;;3.85;1.85;;;;;;;20.11;100.00;99758.88;5192625;28;20128;-80
2023/09/21 02:27:13;;;;;;;10.63;2.20;;;;;;;20.04;100.00;99765.59;5198376;28;20040;-80
2023/09/21 02:29:44;;;;;;;7.68;1.60;;;;;;;20.00;100.00;99767.19;5194976;28;20108;-80
2023/09/21 02:32:14;;;;;;;4.90;2.00;;;;;;;20.01;100.00;99758.75;5197872;28;20220;-80
2023/09/21 02:34:45;;;;;;;5.07;1.88;;;;;;;19.97;100.00;99759.50;5192319;28;20447;-80
2023/09/21 02:37:15;;;;;;;4.75;1.63;;;;;;;19.99;100.00;99762.81;5196767;28;20021;-79
2023/09/21 02:39:46;;;;;;;4.97;1.60;;;;;;;19.97;100.00;99754.06;5193168;28;20139;-80
2023/09/21 02:42:16;;;;;;;4.10;1.75;;;;;;;20.02;100.00;99752.22;5194888;28;20415;-80
2023/09/21 02:44:47;;;;;;;3.53;1.83;;;;;;;20.07;100.00;99746.84;5193305;28;20061;-80
2023/09/21 02:47:19;;;;;;;4.00;1.83;;;;;;;20.03;100.00;99745.72;5195708;28;20030;-80
2023/09/21 02:49:51;;;;;;;4.05;1.73;;;;;;;20.05;100.00;99748.19;5191498;28;20091;-79
2023/09/21 02:52:21;;;;;;;5.40;2.20;;;;;;;20.03;100.00;99737.56;5197497;28;20029;-80
2023/09/21 02:54:54;;;;;;;5.75;1.73;;;;;;;20.06;100.00;99742.47;5194481;28;20534;-79
2023/09/21 02:57:27;;;;;;;5.75;1.65;;;;;;;20.02;100.00;99735.88;5194913;28;20038;-80
2023/09/21 02:59:58;;;;;;;5.82;2.20;;;;;;;20.12;100.00;99729.75;5190853;28;20030;-79
2023/09/21 03:02:29;;;;;;;6.28;2.03;;;;;;;20.11;100.00;99737.09;5195953;28;20040;-81
2023/09/21 03:05:10;;;;;;;5.80;2.25;;;;;;;20.08;100.00;99728.59;5193483;28;20042;-79
2023/09/21 03:07:43;;;;;;;3.97;1.95;;;;;;;20.11;100.00;99728.91;5194731;28;20056;-80
2023/09/21 03:10:16;;;;;;;5.50;2.05;;;;;;;20.05;100.00;99727.22;5195320;28;20454;-80
2023/09/21 03:12:48;;;;;;;10.77;2.30;;;;;;;20.10;100.00;99721.84;5194046;28;20037;-81
2023/09/21 03:15:19;;;;;;;4.68;1.73;;;;;;;20.08;100.00;99715.00;5193345;28;20068;-79
2023/09/21 03:17:52;;;;;;;3.00;1.42;;;;;;;20.09;100.00;99714.75;5191573;28;20032;-80
2023/09/21 03:22:57;;;;;;;6.00;1.92;;;;;;;20.17;100.00;99722.44;5193685;28;20026;-80
2023/09/21 03:25:31;;;;;;;6.00;2.00;;;;;;;20.10;100.00;99723.75;5196645;28;20033;-79
2023/09/21 03:28:10;;;;;;;3.10;1.67;;;;;;;20.12;100.00;99718.84;5216017;28;20548;-79
2023/09/21 03:30:42;;;;;;;3.22;1.77;;;;;;;20.13;100.00;99721.34;5195800;28;20026;-80
2023/09/21 03:33:15;;;;;;;3.13;1.95;;;;;;;20.17;100.00;99727.06;5193094;28;20038;-80
2023/09/21 03:35:46;;;;;;;7.57;1.95;;;;;;;20.18;100.00;99728.72;5196480;28;20018;-80
2023/09/21 03:38:18;;;;;;;5.70;1.95;;;;;;;20.19;100.00;99735.81;5195294;28;20030;-80
2023/09/21 03:40:49;;;;;;;5.32;2.15;;;;;;;20.19;100.00;99722.22;5194418;28;20026;-80
2023/09/21 03:43:21;;;;;;;5.47;1.95;;;;;;;20.14;100.00;99717.53;5195470;28;20075;-80
2023/09/21 03:45:51;;;;;;;6.10;2.10;;;;;;;20.13;100.00;99715.03;5190252;28;20043;-79
2023/09/21 03:48:22;;;;;;;4.90;2.33;;;;;;;20.08;100.00;99712.25;5196154;28;20029;-79
2023/09/21 03:50:55;;;;;;;7.03;1.88;;;;;;;19.99;100.00;99706.47;5190171;28;20053;-79
2023/09/21 03:53:26;;;;;;;4.20;2.42;;;;;;;19.98;100.00;99715.72;5188662;28;20559;-80
2023/09/21 03:55:56;;;;;;;6.63;2.33;;;;;;;19.84;100.00;99712.56;5190599;28;20109;-79
2023/09/21 03:58:28;;;;;;;5.03;2.13;;;;;;;19.80;100.00;99710.59;5195662;28;20140;-79
2023/09/21 04:01:04;;;;;;;8.25;2.30;;;;;;;19.76;100.00;99718.44;5193311;28;20025;-79
2023/09/21 04:03:35;;;;;;;7.00;2.20;;;;;;;19.67;100.00;99714.53;5193432;28;20075;-80
2023/09/21 04:06:06;;;;;;;5.47;1.80;;;;;;;19.61;100.00;99708.19;5194228;28;20042;-80
2023/09/21 04:08:36;;;;;;;4.15;2.28;;;;;;;19.53;100.00;99708.63;5190156;28;20381;-80
2023/09/21 04:11:07;;;;;;;3.17;2.00;;;;;;;19.38;100.00;99698.38;5194563;28;20091;-79
2023/09/21 04:13:37;;;;;;;4.45;2.70;;;;;;;19.32;100.00;99693.91;5194847;28;20026;-80
2023/09/21 04:16:08;;;;;;;3.88;2.00;;;;;;;19.29;100.00;99689.00;5195370;28;20104;-80
2023/09/21 04:18:39;;;;;;;5.90;2.53;;;;;;;19.21;100.00;99697.56;5196380;28;20096;-79
2023/09/21 04:21:09;;;;;;;3.72;2.00;;;;;;;19.10;100.00;99703.94;5194169;28;20665;-79
2023/09/21 04:23:40;;;;;;;4.88;1.98;;;;;;;19.08;100.00;99700.66;5194386;28;20072;-79
2023/09/21 04:26:10;;;;;;;4.13;2.13;;;;;;;19.01;100.00;99698.09;5193398;28;20108;-79
2023/09/21 04:28:41;;;;;;;3.78;2.40;;;;;;;18.95;100.00;99692.84;5195239;28;20040;-80
2023/09/21 04:31:13;;;;;;;6.22;2.83;;;;;;;18.92;100.00;99694.16;5196017;28;20076;-79
2023/09/21 04:33:45;;;;;;;7.45;2.50;;;;;;;18.93;100.00;99681.44;5193601;28;20036;-79
2023/09/21 04:36:15;;;;;;;5.25;2.28;;;;;;;18.88;100.00;99684.88;5195961;28;20057;-81
2023/09/21 04:38:48;;;;;;;6.88;2.53;;;;;;;18.82;100.00;99683.97;5191945;28;20065;-79
2023/09/21 04:41:20;;;;;;;7.55;2.38;;;;;;;18.72;100.00;99693.84;5194435;28;20034;-79
2023/09/21 04:43:50;;;;;;;6.57;2.45;;;;;;;18.72;100.00;99688.41;5193915;28;20057;-79
2023/09/21 04:46:21;;;;;;;5.25;2.58;;;;;;;18.64;100.00;99686.91;5195712;28;20122;-78
2023/09/21 04:48:51;;;;;;;3.67;2.10;;;;;;;18.60;100.00;99692.00;5193322;28;20034;-78
2023/09/21 04:51:22;;;;;;;8.50;3.40;;;;;;;18.60;100.00;99688.47;5194834;28;20103;-78
2023/09/21 04:53:52;;;;;;;5.18;2.17;;;;;;;18.63;100.00;99691.53;5189274;28;20053;-78
2023/09/21 04:56:23;;;;;;;6.18;2.45;;;;;;;18.61;100.00;99685.50;5194710;28;20029;-79
2023/09/21 04:58:55;;;;;;;7.28;2.67;;;;;;;18.56;100.00;99692.75;5190869;28;20388;-79
2023/09/21 05:01:27;;;;;;;4.40;2.25;;;;;;;18.58;100.00;99694.16;5192169;28;20671;-78
2023/09/21 05:03:58;;;;;;;7.60;2.90;;;;;;;18.59;100.00;99686.84;5193457;28;20064;-78
2023/09/21 05:06:30;;;;;;;6.82;2.38;;;;;;;18.54;100.00;99690.28;5195639;28;20713;-79
2023/09/21 05:09:00;;;;;;;7.03;2.65;;;;;;;18.47;100.00;99686.06;5176139;28;20022;-80
2023/09/21 05:11:38;;;;;;;7.38;2.85;;;;;;;18.38;100.00;99682.97;5190449;28;20446;-79
2023/09/21 05:14:09;;;;;;;8.38;2.80;;;;;;;18.34;100.00;99673.66;5192631;28;20030;-78
2023/09/21 05:16:40;;;;;;;6.85;2.75;;;;;;;18.31;100.00;99685.81;5195874;28;20041;-81
2023/09/21 05:19:13;;;;;;;4.15;2.50;;;;;;;18.24;100.00;99678.91;5195215;28;20030;-78
2023/09/21 05:21:43;;;;;;;4.78;2.60;;;;;;;18.15;100.00;99675.75;5189344;28;20057;-79
2023/09/21 05:24:14;;;;;;;6.30;3.00;;;;;;;18.07;100.00;99674.28;5190158;28;20037;-80
2023/09/21 05:26:45;;;;;;;7.78;3.00;;;;;;;18.03;100.00;99675.00;5193650;28;20029;-78
2023/09/21 05:29:16;;;;;;;6.68;3.50;;;;;;;17.97;100.00;99676.81;5190308;28;20029;-78
2023/09/21 05:31:47;;;;;;;7.18;3.20;;;;;;;17.99;100.00;99679.28;5197394;28;20029;-78
2023/09/21 05:34:19;;;;;;;7.90;3.25;;;;;;;17.96;100.00;99677.03;5186153;28;20033;-79
2023/09/21 05:36:51;;;;;;;10.52;2.95;;;;;;;17.95;100.00;99683.53;5195343;28;20119;-79
2023/09/21 05:39:21;;;;;;;4.15;2.70;;;;;;;17.92;100.00;99673.97;5191240;28;20076;-79
2023/09/21 05:41:52;;;;;;;6.60;2.70;;;;;;;17.96;100.00;99679.75;5193981;28;20037;-80
2023/09/21 05:44:25;;;;;;;8.05;3.03;;;;;;;17.92;100.00;99679.41;5194922;28;20495;-79
2023/09/21 05:46:55;;;;;;;10.45;2.95;;;;;;;17.97;100.00;99694.97;5191653;28;20038;-79
2023/09/21 05:49:27;;;;;;;7.10;2.97;;;;;;;17.97;100.00;99689.53;5192313;28;22262;-80
2023/09/21 05:51:59;;;;;;;8.35;2.95;;;;;;;17.98;100.00;99688.50;5193600;28;20029;-78
2023/09/21 05:54:30;;;;;;;6.65;2.90;;;;;;;17.99;100.00;99693.66;5193699;28;20029;-81
2023/09/21 05:57:03;;;;;;;5.68;2.72;;;;;;;17.98;100.00;99693.91;5193210;28;20030;-80
2023/09/21 05:59:36;;;;;;;6.88;2.67;;;;;;;17.95;100.00;99702.53;5184965;28;20452;-79
2023/09/21 06:02:13;;;;;;;4.63;2.90;;;;;;;17.96;100.00;99696.03;5178123;28;20058;-79
2023/09/21 06:04:44;;;;;;;5.97;3.35;;;;;;;17.91;100.00;99701.38;5194188;28;20067;-79
2023/09/21 06:07:14;;;;;;;5.47;3.00;;;;;;;17.90;100.00;99707.84;5189807;28;20037;-81
2023/09/21 06:09:48;;;;;;;7.22;2.70;;;;;;;17.94;100.00;99699.00;5192822;28;20491;-79
2023/09/21 06:12:18;;;;;;;6.60;3.10;;;;;;;17.84;100.00;99704.22;5193854;28;20032;-79
2023/09/21 06:14:50;;;;;;;6.20;3.17;;;;;;;17.77;100.00;99715.22;5190470;28;20414;-80
2023/09/21 06:17:20;;;;;;;10.02;3.10;;;;;;;17.68;100.00;99711.22;5193132;28;20112;-79
2023/09/21 06:19:53;;;;;;;7.10;3.83;;;;;;;17.60;100.00;99704.25;5189308;28;20032;-79
2023/09/21 06:22:23;;;;;;;5.80;3.40;;;;;;;17.61;100.00;99707.78;5184374;28;20033;-79
2023/09/21 06:24:54;;;;;;;10.32;4.00;;;;;;;17.56;100.00;99704.97;5189724;28;20029;-80
2023/09/21 06:27:24;;;;;;;8.70;3.75;;;;;;;17.57;100.00;99704.75;5194454;28;20038;-80
2023/09/21 06:29:55;;;;;;;7.72;4.22;;;;;;;17.55;100.00;99708.75;5193307;28;20038;-80
2023/09/21 06:32:26;;;;;;;9.20;4.18;;;;;;;17.61;100.00;99705.91;5192211;28;20109;-80
2023/09/21 06:34:57;;;;;;;7.38;3.88;;;;;;;17.63;100.00;99713.00;5190036;28;20454;-80
2023/09/21 06:37:30;;;;;;;11.13;4.20;;;;;;;17.61;100.00;99710.50;5193411;28;20034;-80
2023/09/21 06:40:01;;;;;;;6.53;3.88;;;;;;;17.63;100.00;99711.09;5191907;28;20025;-81
2023/09/21 06:42:33;;;;;;;10.88;3.60;;;;;;;17.71;100.00;99728.88;5197423;28;20030;-80
2023/09/21 06:45:05;;;;;;;9.93;4.15;;;;;;;17.78;100.00;99735.84;5174599;28;20026;-80
2023/09/21 06:47:36;;;;;;;9.55;4.60;;;;;;;17.82;100.00;99731.59;5186523;28;20030;-80
2023/09/21 06:50:07;;;;;;;8.20;3.92;;;;;;;17.83;100.00;99724.28;5189263;28;20502;-80
2023/09/21 06:52:37;;;;;;;11.15;4.05;;;;;;;17.84;100.00;99742.22;5189396;28;20108;-80
2023/09/21 06:55:09;;;;;;;5.07;2.80;;;;;;;17.75;100.00;99738.22;5190266;28;20219;-80
2023/09/21 06:57:39;;;;;;;5.65;2.53;;;;;;;17.64;100.00;99730.91;5189095;28;20065;-81
2023/09/21 07:00:10;;;;;;;6.50;2.25;;;;;;;17.64;100.00;99731.72;5194820;28;20044;-80
2023/09/21 07:02:41;;;;;;;2.92;2.28;;;;;;;17.60;100.00;99750.38;5189958;28;20029;-80
2023/09/21 07:05:12;;;;;;;4.40;2.30;;;;;;;17.57;100.00;99753.56;5194976;28;20026;-81
2023/09/21 07:07:43;;;;;;;3.25;1.55;;;;;;;17.45;100.00;99760.06;5191974;28;20018;-82
2023/09/21 07:10:16;;;;;;;3.65;1.90;;;;;;;17.34;100.00;99750.88;5173047;28;20040;-85
2023/09/21 07:12:46;;;;;;;4.32;2.00;;;;;;;17.25;100.00;99753.13;5197138;28;20040;-80
2023/09/21 07:15:19;;;;;;;2.80;1.92;;;;;;;17.21;100.00;99753.81;5196045;28;20022;-80
2023/09/21 07:17:50;;;;;;;6.95;2.08;;;;;;;17.19;100.00;99756.78;5196333;28;20471;-80
2023/09/21 07:20:23;;;;;;;3.97;1.80;;;;;;;17.14;100.00;99762.06;5195908;28;20131;-80
2023/09/21 07:22:54;;;;;;;2.75;2.00;;;;;;;17.00;100.00;99768.78;5199337;28;20130;-81
2023/09/21 07:25:26;;;;;;;5.28;3.20;;;;;;;16.90;100.00;99769.34;5197009;28;20125;-81
2023/09/21 07:27:57;;;;;;;5.40;3.03;;;;;;;16.88;100.00;99765.25;5196613;28;20030;-79
2023/09/21 07:30:31;;;;;;;6.20;3.20;;;;;;;16.81;100.00;99766.16;5196479;28;20029;-81
2023/09/21 07:33:02;;;;;;;5.07;2.80;;;;;;;16.70;100.00;99761.53;5200175;28;20041;-81
2023/09/21 07:35:32;;;;;;;5.90;3.50;;;;;;;16.63;100.00;99755.41;5201634;28;20025;-82
2023/09/21 07:38:03;;;;;;;5.82;3.67;;;;;;;16.62;100.00;99750.19;5197035;28;20100;-83
2023/09/21 07:40:34;;;;;;;8.00;3.90;;;;;;;16.63;100.00;99760.00;5199776;28;20082;-81
2023/09/21 07:43:06;;;;;;;8.30;3.83;;;;;;;16.64;100.00;99758.94;5194458;28;20029;-81
2023/09/21 07:45:37;;;;;;;6.38;3.13;;;;;;;16.67;100.00;99756.59;5185370;28;20037;-82
2023/09/21 07:48:07;;;;;;;5.85;3.28;;;;;;;16.73;100.00;99761.09;5196139;28;20034;-82
2023/09/21 07:50:38;;;;;;;3.80;2.72;;;;;;;16.79;100.00;99765.56;5189952;28;20026;-82
2023/09/21 07:53:09;;;;;;;4.93;2.95;;;;;;;16.83;100.00;99769.47;5190880;28;20025;-83
2023/09/21 07:55:40;;;;;;;6.78;2.67;;;;;;;16.91;100.00;99767.47;5187800;28;20081;-83
2023/09/21 07:58:11;;;;;;;3.58;2.00;;;;;;;16.96;100.00;99768.41;5191095;28;20026;-84
2023/09/21 08:00:42;;;;;;;4.50;2.00;;;;;;;16.96;100.00;99759.47;5194475;28;20018;-82
2023/09/21 08:03:13;;;;;;;2.25;1.60;;;;;;;16.92;100.00;99756.41;5193017;28;20040;-81
2023/09/21 08:05:43;;;;;;;3.13;1.65;;;;;;;16.89;100.00;99775.03;5192170;28;20033;-81
2023/09/21 08:08:16;;;;;;;2.20;1.55;;;;;;;16.92;100.00;99774.53;5194028;28;20501;-81
2023/09/21 08:10:47;;;;;;;2.90;1.27;;;;;;;16.92;100.00;99766.41;5184778;28;20037;-80
2023/09/21 08:13:18;;;;;;;2.38;1.17;;;;;;;16.94;100.00;99772.44;5193679;28;20168;-81
2023/09/21 08:15:48;;;;;;;3.03;1.15;;;;;;;17.00;100.00;99776.91;5193628;28;20041;-81
2023/09/21 08:18:19;;;;;;;1.30;0.93;;;;;;;17.01;100.00;99775.84;5188950;28;20522;-80
2023/09/21 08:20:50;;;;;;;1.98;1.20;;;;;;;16.97;100.00;99775.50;5198910;28;20091;-81
2023/09/21 08:23:20;;;;;;;2.72;1.20;;;;;;;16.96;100.00;99773.00;5188535;28;20025;-81
2023/09/21 08:25:51;;;;;;;1.50;1.13;;;;;;;17.03;100.00;99773.75;5198012;28;20032;-81
2023/09/21 08:28:22;;;;;;;1.80;1.10;;;;;;;17.12;100.00;99768.78;5190511;28;20017;-81
2023/09/21 08:30:54;;;;;;;5.50;1.02;;;;;;;17.16;100.00;99781.63;5170494;28;20574;-81
2023/09/21 08:33:25;;;;;;;4.55;1.17;;;;;;;17.15;100.00;99785.41;5187626;28;20025;-81
2023/09/21 08:35:55;;;;;;;1.70;0.90;;;;;;;17.07;100.00;99783.88;5192448;28;20037;-81
2023/09/21 08:38:26;;;;;;;4.00;1.15;;;;;;;17.05;100.00;99780.56;5186842;28;20025;-80
2023/09/21 08:40:59;;;;;;;1.27;1.15;;;;;;;16.99;100.00;99789.63;5188525;28;20387;-81
2023/09/21 08:43:31;;;;;;;3.25;1.30;;;;;;;16.94;100.00;99788.69;5193963;28;20107;-80
2023/09/21 08:46:03;;;;;;;1.92;1.33;;;;;;;16.92;100.00;99779.94;5190975;28;20044;-80
2023/09/21 08:48:34;;;;;;;2.88;1.42;;;;;;;16.95;100.00;99774.06;5193430;28;20026;-80
2023/09/21 08:51:11;;;;;;;6.05;1.95;;;;;;;17.03;100.00;99755.59;5186837;28;20037;-81
2023/09/21 08:53:46;;;;;;;3.00;1.50;;;;;;;17.05;100.00;99752.66;5191597;28;20028;-81
2023/09/21 08:56:16;;;;;;;2.80;1.70;;;;;;;17.11;100.00;99756.28;5192001;28;20071;-82
2023/09/21 08:58:51;;;;;;;3.10;1.50;;;;;;;17.14;100.00;99748.53;5186916;28;20558;-81
2023/09/21 09:01:22;;;;;;;2.20;1.40;;;;;;;17.21;100.00;99745.69;5192003;28;20029;-81
2023/09/21 09:03:53;;;;;;;1.50;1.33;;;;;;;17.21;100.00;99749.22;5171866;28;20184;-81
2023/09/21 09:06:24;;;;;;;1.88;1.50;;;;;;;17.24;100.00;99743.34;5189896;28;20026;-81
2023/09/21 09:08:56;;;;;;;2.97;1.65;;;;;;;17.32;100.00;99732.16;5186497;28;20179;-81
2023/09/21 09:11:36;;;;;;;4.35;1.50;;;;;;;17.43;100.00;99744.03;5194516;28;20036;-81
2023/09/21 09:14:13;;;;;;;3.08;1.30;;;;;;;17.52;100.00;99739.06;5183668;28;21582;-81
2023/09/21 09:16:46;;;;;;;2.35;1.60;;;;;;;17.60;100.00;99744.13;5194131;28;20043;-81
2023/09/21 09:19:16;;;;;;;2.30;1.50;;;;;;;17.67;100.00;99755.69;5188173;28;20065;-82
2023/09/21 09:21:49;;;;;;;3.55;1.77;;;;;;;17.68;100.00;99749.19;5170983;28;20364;-82
2023/09/21 09:24:20;;;;;;;6.20;2.25;;;;;;;17.76;100.00;99762.38;5188552;28;20076;-81
2023/09/21 09:26:51;;;;;;;6.60;2.50;;;;;;;17.78;100.00;99759.44;5187896;28;20395;-81
2023/09/21 09:29:22;;;;;;;8.25;2.60;;;;;;;17.76;100.00;99770.53;5185220;28;20549;-82
2023/09/21 09:31:53;;;;;;;4.15;2.83;;;;;;;17.79;100.00;99769.22;5188165;28;20108;-81
2023/09/21 09:34:27;;;;;;;5.85;2.90;;;;;;;17.83;100.00;99757.66;5187097;28;20554;-82
2023/09/21 09:36:59;;;;;;;5.28;2.38;;;;;;;17.84;100.00;99751.16;5185618;28;20406;-82
2023/09/21 09:39:29;;;;;;;8.13;2.53;;;;;;;17.93;100.00;99750.81;5194965;28;20036;-82
2023/09/21 09:42:03;;;;;;;5.85;2.67;;;;;;;18.01;100.00;99731.41;5188369;28;20399;-81
2023/09/21 09:44:39;;;;;;;5.97;2.72;;;;;;;18.21;100.00;99728.25;5187394;28;20028;-81
2023/09/21 09:47:11;;;;;;;5.55;2.90;;;;;;;18.41;100.00;99735.94;5190091;28;20033;-82
2023/09/21 09:49:46;;;;;;;5.47;2.85;;;;;;;18.54;100.00;99735.63;5188810;28;20022;-82
2023/09/21 09:52:18;;;;;;;7.05;3.00;;;;;;;18.66;100.00;99736.38;5192598;28;20022;-82
2023/09/21 09:54:51;;;;;;;8.40;2.90;;;;;;;18.67;100.00;99743.44;5183778;28;20111;-83
2023/09/21 09:57:23;;;;;;;4.78;2.67;;;;;;;18.71;100.00;99738.38;5186432;28;20021;-83
2023/09/21 09:59:56;;;;;;;5.82;2.65;;;;;;;18.69;100.00;99738.66;5194132;28;20030;-82
2023/09/21 10:02:29;;;;;;;6.20;2.53;;;;;;;18.72;100.00;99731.88;5178086;28;20109;-82
2023/09/21 10:05:00;;;;;;;11.18;3.35;;;;;;;18.63;100.00;99732.28;5189004;28;20105;-81
2023/09/21 10:07:30;;;;;;;5.32;2.30;;;;;;;18.73;100.00;99723.50;5193936;28;20116;-84
2023/09/21 10:10:04;;;;;;;6.00;2.35;;;;;;;18.78;100.00;99710.00;5187672;28;20028;-82
2023/09/21 10:12:35;;;;;;;7.05;2.88;;;;;;;18.87;100.00;99729.41;5190332;28;20116;-83
2023/09/21 10:15:07;;;;;;;4.10;2.70;;;;;;;18.88;100.00;99731.09;5192881;28;20113;-82
2023/09/21 10:17:37;;;;;;;7.47;3.10;;;;;;;18.80;100.00;99732.31;5197830;28;20017;-82
2023/09/21 10:20:14;;;;;;;4.35;2.10;;;;;;;18.70;100.00;99721.28;5179921;28;20036;-83
2023/09/21 10:22:46;;;;;;;4.65;2.80;;;;;;;18.69;100.00;99756.84;5196424;28;20026;-82
2023/09/21 10:25:35;;;;;;;7.65;2.90;;;;;;;18.73;100.00;99777.03;5198378;28;20060;-82
2023/09/21 10:28:34;;;;;;;3.10;2.33;;;;;;;18.49;100.00;99781.72;5195320;28;20124;-83
2023/09/21 10:31:06;;;;;;;3.83;2.78;;;;;;;18.33;100.00;99792.31;5192713;28;20041;-82
2023/09/21 10:33:37;;;;;;;6.63;2.92;;;;;;;18.09;100.00;99796.16;5201279;28;20040;-82
2023/09/21 10:36:11;;;;;;;2.90;1.80;;;;;;;17.89;100.00;99803.88;5194835;28;20030;-82
2023/09/21 10:38:43;;;;;;;3.33;2.08;;;;;;;17.60;100.00;99799.19;5174437;28;20419;-83
2023/09/21 10:41:33;;;;;;;3.22;2.22;;;;;;;17.47;100.00;99795.88;5200765;28;20021;-82
2023/09/21 10:44:04;;;;;;;2.22;1.60;;;;;;;17.33;100.00;99790.72;5195170;28;20040;-83
2023/09/21 10:46:37;;;;;;;5.50;2.10;;;;;;;17.27;100.00;99794.38;5182779;28;20025;-84
2023/09/21 10:49:15;;;;;;;4.85;1.48;;;;;;;17.26;100.00;99798.13;5197810;28;20061;-82
2023/09/21 10:51:46;;;;;;;3.22;1.63;;;;;;;17.22;100.00;99794.25;5194164;28;20029;-82
2023/09/21 10:54:17;;;;;;;2.17;1.58;;;;;;;17.21;100.00;99795.28;5177906;28;20498;-83
2023/09/21 10:56:48;;;;;;;4.05;1.40;;;;;;;17.23;100.00;99805.91;5194879;28;20026;-83
2023/09/21 10:59:19;;;;;;;6.07;1.85;;;;;;;17.23;100.00;99809.47;5193486;28;20022;-82
2023/09/21 11:01:49;;;;;;;4.00;2.20;;;;;;;17.23;100.00;99801.31;5197282;28;20028;-82
2023/09/21 11:04:20;;;;;;;6.47;2.20;;;;;;;17.28;100.00;99801.44;5189082;28;20021;-82
2023/09/21 11:06:50;;;;;;;5.78;2.92;;;;;;;17.33;100.00;99801.56;5188383;28;20018;-81
2023/09/21 11:09:23;;;;;;;3.20;2.13;;;;;;;17.35;100.00;99802.13;5190718;28;20048;-82
2023/09/21 11:11:54;;;;;;;5.18;2.92;;;;;;;17.38;100.00;99791.91;5189239;28;20033;-83
2023/09/21 11:14:24;;;;;;;5.05;2.30;;;;;;;17.42;100.00;99783.06;5192623;28;20098;-82
2023/09/21 11:16:55;;;;;;;2.85;2.40;;;;;;;17.43;100.00;99773.84;5190433;28;20523;-83
2023/09/21 11:19:26;;;;;;;5.03;2.60;;;;;;;17.44;100.00;99767.38;5191921;28;20049;-83
2023/09/21 11:21:57;;;;;;;4.72;2.97;;;;;;;17.42;100.00;99752.38;5194314;28;20059;-84
2023/09/21 11:24:29;;;;;;;3.85;2.85;;;;;;;17.45;100.00;99760.88;5194477;28;20026;-82
2023/09/21 11:27:03;;;;;;;6.22;3.25;;;;;;;17.54;100.00;99748.59;5194237;28;20037;-82
2023/09/21 11:29:35;;;;;;;4.53;3.08;;;;;;;17.71;100.00;99739.72;5182814;28;20029;-82
2023/09/21 11:32:07;;;;;;;4.93;3.20;;;;;;;17.85;100.00;99727.56;5191490;28;20387;-82
2023/09/21 11:34:39;;;;;;;4.65;3.22;;;;;;;17.94;100.00;99734.28;5188404;28;20030;-83
2023/09/21 11:37:11;;;;;;;4.97;3.15;;;;;;;18.03;100.00;99732.81;5195404;28;20030;-83
2023/09/21 11:39:46;;;;;;;3.75;2.85;;;;;;;18.08;100.00;99742.97;5199730;28;20044;-83
2023/09/21 11:42:19;;;;;;;5.50;3.17;;;;;;;18.14;100.00;99736.56;5195153;28;20037;-82
2023/09/21 11:44:50;;;;;;;4.60;3.35;;;;;;;18.15;100.00;99742.81;5197213;28;20025;-82
2023/09/21 11:47:24;;;;;;;6.05;3.90;;;;;;;18.12;100.00;99741.38;5194225;28;20021;-82
2023/09/21 11:49:55;;;;;;;5.20;3.65;;;;;;;18.12;100.00;99741.38;5193474;28;20025;-82